createdAt,value
2023-05-22T00:00:00.214Z,86
2023-05-22T00:04:00.206Z,86
2023-05-22T00:08:00.207Z,86
2023-05-22T00:12:00.199Z,86
2023-05-22T00:16:00.210Z,86
2023-05-22T00:20:00.225Z,85
2023-05-22T00:24:00.205Z,85
2023-05-22T00:28:00.208Z,85
2023-05-22T00:32:00.188Z,84
2023-05-22T00:36:00.189Z,84
2023-05-22T00:40:00.227Z,84
2023-05-22T00:44:00.198Z,83
2023-05-22T00:48:00.279Z,83
2023-05-22T00:52:00.197Z,82
2023-05-22T00:56:00.210Z,81
2023-05-22T01:00:00.251Z,81
2023-05-22T01:04:01.399Z,79
2023-05-22T01:08:00.193Z,79
2023-05-22T01:12:00.275Z,77
2023-05-22T01:16:00.205Z,76
2023-05-22T01:20:00.193Z,76
2023-05-22T01:24:00.180Z,73
2023-05-22T01:28:00.213Z,71
2023-05-22T01:32:00.206Z,70
2023-05-22T01:36:00.208Z,69
2023-05-22T01:40:00.233Z,67
2023-05-22T01:44:00.195Z,66
2023-05-22T01:48:00.299Z,66
2023-05-22T01:52:00.203Z,65
2023-05-22T01:56:00.206Z,64
2023-05-22T02:00:00.201Z,64
2023-05-22T02:04:00.258Z,63
2023-05-22T02:08:00.209Z,63
2023-05-22T02:12:00.204Z,63
2023-05-22T02:16:00.278Z,63
2023-05-22T02:20:00.209Z,63
2023-05-22T02:24:00.198Z,62
2023-05-22T02:28:00.207Z,61
2023-05-22T02:32:00.220Z,61
2023-05-22T02:36:00.213Z,61
2023-05-22T02:40:00.218Z,61
2023-05-22T02:44:00.218Z,61
2023-05-22T02:48:00.305Z,61
2023-05-22T02:52:00.218Z,61
2023-05-22T02:56:00.201Z,61
2023-05-22T03:00:00.234Z,61
2023-05-22T03:04:00.267Z,62
2023-05-22T03:08:00.190Z,62
2023-05-22T03:12:00.219Z,62
2023-05-22T03:16:00.316Z,62
2023-05-22T03:20:00.214Z,62
2023-05-22T03:24:00.205Z,62
2023-05-22T03:28:00.193Z,62
2023-05-22T03:32:00.217Z,62
2023-05-22T03:36:00.212Z,62
2023-05-22T03:40:00.208Z,63
2023-05-22T03:44:00.239Z,63
2023-05-22T03:48:00.249Z,63
2023-05-22T03:52:00.195Z,63
2023-05-22T03:56:00.210Z,63
2023-05-22T04:00:00.214Z,63
2023-05-22T04:04:00.219Z,63
2023-05-22T04:08:00.220Z,63
2023-05-22T04:12:00.203Z,63
2023-05-22T04:16:00.234Z,63
2023-05-22T04:20:00.217Z,63
2023-05-22T04:24:00.178Z,62
2023-05-22T04:28:00.199Z,62
2023-05-22T04:32:00.239Z,62
2023-05-22T04:36:00.223Z,62
2023-05-22T04:40:00.245Z,62
2023-05-22T04:44:00.204Z,61
2023-05-22T04:48:00.269Z,61
2023-05-22T04:52:00.195Z,60
2023-05-22T04:56:00.182Z,60
2023-05-22T05:00:00.256Z,59
2023-05-22T05:04:00.354Z,59
2023-05-22T05:08:00.192Z,58
2023-05-22T05:12:00.192Z,58
2023-05-22T05:16:00.207Z,57
2023-05-22T05:20:00.206Z,56
2023-05-22T05:24:00.203Z,56
2023-05-22T05:28:00.186Z,56
2023-05-22T05:32:00.295Z,55
2023-05-22T05:36:00.183Z,55
2023-05-22T05:40:00.213Z,55
2023-05-22T05:44:00.272Z,55
2023-05-22T05:48:00.289Z,55
2023-05-22T05:52:00.189Z,54
2023-05-22T05:56:00.210Z,54
2023-05-22T06:00:00.394Z,54
2023-05-22T06:04:00.335Z,55
2023-05-22T06:08:00.204Z,54
2023-05-22T06:12:00.216Z,54
2023-05-22T06:16:01.842Z,55
2023-05-22T06:20:00.258Z,54
2023-05-22T06:24:00.224Z,55
2023-05-22T06:28:00.211Z,55
2023-05-22T06:32:00.283Z,53
2023-05-22T06:36:00.206Z,53
2023-05-22T06:40:00.203Z,50
2023-05-22T06:44:00.221Z,51
2023-05-22T06:48:00.324Z,52
2023-05-22T06:52:00.253Z,49
2023-05-22T06:56:00.211Z,49
2023-05-22T07:00:00.206Z,48
2023-05-22T07:04:00.189Z,48
2023-05-22T07:08:00.232Z,47
2023-05-22T07:12:00.219Z,47
2023-05-22T07:16:00.284Z,47
2023-05-22T07:20:00.200Z,45
2023-05-22T07:24:00.202Z,46
2023-05-22T07:28:00.223Z,45
2023-05-22T07:32:00.246Z,45
2023-05-22T07:36:00.215Z,45
2023-05-22T07:40:00.248Z,46
2023-05-22T07:44:00.219Z,45
2023-05-22T07:48:00.233Z,44
2023-05-22T07:52:00.225Z,44
2023-05-22T07:56:00.178Z,44
2023-05-22T08:00:00.255Z,44
2023-05-22T08:04:00.316Z,43
2023-05-22T08:08:00.207Z,40
2023-05-22T08:12:00.198Z,41
2023-05-22T08:16:01.328Z,41
2023-05-22T08:20:00.439Z,39
2023-05-22T08:24:00.191Z,40
2023-05-22T08:28:00.194Z,39
2023-05-22T08:32:00.337Z,39
2023-05-22T08:36:00.208Z,36
2023-05-22T08:40:00.221Z,36
2023-05-22T08:44:00.195Z,36
2023-05-22T08:48:00.325Z,34
2023-05-22T08:52:00.225Z,36
2023-05-22T08:56:00.201Z,36
2023-05-22T09:00:00.237Z,35
2023-05-22T09:04:00.240Z,35
2023-05-22T09:08:08.497Z,33
2023-05-22T09:12:00.197Z,33
2023-05-22T09:16:00.209Z,34
2023-05-22T09:20:00.300Z,34
2023-05-22T09:24:00.251Z,33
2023-05-22T09:28:00.224Z,33
2023-05-22T09:32:00.231Z,33
2023-05-22T09:36:00.238Z,31
2023-05-22T09:40:00.226Z,32
2023-05-22T09:44:01.914Z,32
2023-05-22T09:48:00.369Z,32
2023-05-22T09:52:00.244Z,31
2023-05-22T09:56:00.410Z,30
2023-05-22T10:00:00.287Z,30
2023-05-22T10:04:00.256Z,31
2023-05-22T10:08:00.226Z,31
2023-05-22T10:12:00.252Z,32
2023-05-22T10:16:00.280Z,31
2023-05-22T10:20:00.214Z,32
2023-05-22T10:24:00.201Z,32
2023-05-22T10:28:00.216Z,32
2023-05-22T10:32:00.198Z,31
2023-05-22T10:36:00.189Z,31
2023-05-22T10:40:00.241Z,32
2023-05-22T10:44:00.207Z,32
2023-05-22T10:48:00.244Z,32
2023-05-22T10:52:00.225Z,33
2023-05-22T10:56:00.197Z,32
2023-05-22T11:00:00.274Z,31
2023-05-22T11:04:00.235Z,30
2023-05-22T11:08:00.205Z,30
2023-05-22T11:12:00.216Z,31
2023-05-22T11:16:00.208Z,30
2023-05-22T11:20:00.365Z,30
2023-05-22T11:24:00.223Z,30
2023-05-22T11:28:00.215Z,29
2023-05-22T11:32:00.244Z,27
2023-05-22T11:36:00.261Z,27
2023-05-22T11:40:00.220Z,27
2023-05-22T11:44:00.240Z,26
2023-05-22T11:48:00.252Z,27
2023-05-22T11:52:00.197Z,27
2023-05-22T11:56:00.228Z,27
2023-05-22T12:00:00.337Z,28
2023-05-22T12:04:00.370Z,28
2023-05-22T12:08:00.214Z,28
2023-05-22T12:12:00.194Z,27
2023-05-22T12:16:00.348Z,28
2023-05-22T12:20:00.212Z,27
2023-05-22T12:24:00.228Z,28
2023-05-22T12:28:00.194Z,27
2023-05-22T12:32:00.231Z,28
2023-05-22T12:36:00.212Z,27
2023-05-22T12:40:00.230Z,26
2023-05-22T12:44:00.211Z,26
2023-05-22T12:48:00.230Z,26
2023-05-22T12:52:00.208Z,26
2023-05-22T12:56:00.198Z,25
2023-05-22T13:00:00.309Z,25
2023-05-22T13:04:00.200Z,24
2023-05-22T13:08:00.216Z,23
2023-05-22T13:12:00.361Z,22
2023-05-22T13:16:00.259Z,23
2023-05-22T13:20:00.184Z,23
2023-05-22T13:24:00.194Z,23
2023-05-22T13:28:00.198Z,23
2023-05-22T13:32:00.210Z,23
2023-05-22T13:36:00.207Z,23
2023-05-22T13:40:00.241Z,22
2023-05-22T13:44:00.212Z,22
2023-05-22T13:48:00.261Z,22
2023-05-22T13:52:00.250Z,23
2023-05-22T13:56:00.218Z,22
2023-05-22T14:00:00.245Z,22
2023-05-22T14:04:00.208Z,22
2023-05-22T14:08:00.213Z,22
2023-05-22T14:12:00.199Z,22
2023-05-22T14:16:00.189Z,22
2023-05-22T14:20:00.316Z,23
2023-05-22T14:24:00.178Z,23
2023-05-22T14:28:00.200Z,23
2023-05-22T14:32:00.179Z,23
2023-05-22T14:36:00.204Z,23
2023-05-22T14:40:00.225Z,22
2023-05-22T14:44:00.172Z,23
2023-05-22T14:48:00.315Z,23
2023-05-22T14:52:00.221Z,22
2023-05-22T14:56:00.229Z,23
2023-05-22T15:00:00.218Z,22
2023-05-22T15:04:00.263Z,22
2023-05-22T15:08:00.230Z,22
2023-05-22T15:12:00.209Z,22
2023-05-22T15:16:00.271Z,22
2023-05-22T15:20:00.229Z,22
2023-05-22T15:24:00.197Z,22
2023-05-22T15:28:00.192Z,22
2023-05-22T15:32:00.261Z,22
2023-05-22T15:36:00.203Z,22
2023-05-22T15:40:00.231Z,22
2023-05-22T15:44:00.186Z,22
2023-05-22T15:48:00.322Z,23
2023-05-22T15:52:00.186Z,23
2023-05-22T15:56:00.205Z,23
2023-05-22T16:00:00.231Z,23
2023-05-22T16:04:00.304Z,22
2023-05-22T16:08:00.186Z,23
2023-05-22T16:12:00.216Z,23
2023-05-22T16:16:00.248Z,23
2023-05-22T16:20:00.214Z,21
2023-05-22T16:24:00.215Z,22
2023-05-22T16:28:00.193Z,21
2023-05-22T16:32:00.351Z,22
2023-05-22T16:36:00.219Z,21
2023-05-22T16:40:00.303Z,22
2023-05-22T16:44:00.226Z,22
2023-05-22T16:48:00.287Z,22
2023-05-22T16:52:00.205Z,22
2023-05-22T16:56:00.217Z,23
2023-05-22T17:00:00.229Z,24
2023-05-22T17:04:00.371Z,23
2023-05-22T17:08:00.197Z,23
2023-05-22T17:12:00.235Z,23
2023-05-22T17:16:00.247Z,24
2023-05-22T17:20:00.362Z,25
2023-05-22T17:24:00.212Z,25
2023-05-22T17:28:00.209Z,26
2023-05-22T17:32:00.277Z,26
2023-05-22T17:36:00.208Z,26
2023-05-22T17:40:00.254Z,27
2023-05-22T17:44:00.201Z,27
2023-05-22T17:48:00.305Z,28
2023-05-22T17:52:00.194Z,29
2023-05-22T17:56:00.192Z,30
2023-05-22T18:00:00.251Z,31
2023-05-22T18:04:00.345Z,31
2023-05-22T18:08:00.206Z,32
2023-05-22T18:12:00.194Z,32
2023-05-22T18:16:00.246Z,32
2023-05-22T18:20:00.197Z,33
2023-05-22T18:24:00.221Z,33
2023-05-22T18:28:00.177Z,34
2023-05-22T18:32:00.318Z,34
2023-05-22T18:36:00.201Z,35
2023-05-22T18:40:00.202Z,36
2023-05-22T18:44:00.184Z,36
2023-05-22T18:48:00.282Z,37
2023-05-22T18:52:00.193Z,38
2023-05-22T18:56:00.188Z,38
2023-05-22T19:00:00.251Z,39
2023-05-22T19:04:00.176Z,40
2023-05-22T19:08:00.207Z,40
2023-05-22T19:12:00.225Z,41
2023-05-22T19:16:00.211Z,42
2023-05-22T19:20:00.201Z,43
2023-05-22T19:24:00.204Z,43
2023-05-22T19:28:00.196Z,44
2023-05-22T19:32:00.213Z,44
2023-05-22T19:36:01.282Z,44
2023-05-22T19:40:00.256Z,45
2023-05-22T19:44:00.221Z,45
2023-05-22T19:48:00.310Z,45
2023-05-22T19:52:00.200Z,46
2023-05-22T19:56:00.199Z,47
2023-05-22T20:00:00.222Z,47
2023-05-22T20:04:00.225Z,47
2023-05-22T20:08:00.217Z,48
2023-05-22T20:12:00.190Z,48
2023-05-22T20:16:00.315Z,48
2023-05-22T20:20:00.298Z,49
2023-05-22T20:24:00.209Z,49
2023-05-22T20:28:00.212Z,49
2023-05-22T20:32:00.253Z,50
2023-05-22T20:36:00.217Z,51
2023-05-22T20:40:00.221Z,51
2023-05-22T20:44:00.196Z,52
2023-05-22T20:48:00.254Z,52
2023-05-22T20:52:00.191Z,52
2023-05-22T20:56:00.201Z,53
2023-05-22T21:00:00.229Z,53
2023-05-22T21:04:00.222Z,54
2023-05-22T21:08:00.229Z,54
2023-05-22T21:12:00.193Z,54
2023-05-22T21:16:00.201Z,55
2023-05-22T21:20:00.197Z,55
2023-05-22T21:24:00.262Z,55
2023-05-22T21:28:00.199Z,55
2023-05-22T21:32:00.294Z,55
2023-05-22T21:36:00.211Z,55
2023-05-22T21:40:00.301Z,55
2023-05-22T21:44:00.204Z,55
2023-05-22T21:48:00.311Z,55
2023-05-22T21:52:00.199Z,55
2023-05-22T21:56:00.217Z,56
2023-05-22T22:00:00.192Z,56
2023-05-22T22:04:00.249Z,56
2023-05-22T22:08:00.260Z,56
2023-05-22T22:12:00.180Z,56
2023-05-22T22:16:00.219Z,56
2023-05-22T22:20:00.263Z,56
2023-05-22T22:24:00.211Z,57
2023-05-22T22:28:00.188Z,57
2023-05-22T22:32:00.262Z,57
2023-05-22T22:36:00.211Z,57
2023-05-22T22:40:00.216Z,57
2023-05-22T22:44:00.183Z,58
2023-05-22T22:48:00.290Z,58
2023-05-22T22:52:00.193Z,58
2023-05-22T22:56:00.215Z,58
2023-05-22T23:00:00.279Z,58
2023-05-22T23:04:00.251Z,58
2023-05-22T23:08:00.187Z,58
2023-05-22T23:12:00.190Z,58
2023-05-22T23:16:00.258Z,58
2023-05-22T23:20:00.222Z,58
2023-05-22T23:24:00.184Z,58
2023-05-22T23:28:00.206Z,58
2023-05-22T23:32:00.391Z,59
2023-05-22T23:36:00.196Z,59
2023-05-22T23:40:00.312Z,59
2023-05-22T23:44:00.185Z,59
2023-05-22T23:48:00.331Z,59
2023-05-22T23:52:00.190Z,59
2023-05-22T23:56:00.201Z,60
